Time;durP1;ratioP1;P1;durP2;ratioP2;P2;SDS_P1;SDS_P2;PMS_P1;PMS_P2;Temp;Humidity;BMP_temperature;BMP_pressure;BME280_temperature;BME280_humidity;BME280_pressure;Samples;Min_cycle;Max_cycle;Signal;HPM_P1;HPM_P2
2024/04/18 00:02:08;;;;;;;5.75;1.83;;;7.70;99.90;;;;;;5423984;26;20012;-70
2024/04/18 00:04:34;;;;;;;4.18;1.65;;;7.70;99.90;;;;;;5423754;26;20055;-69
2024/04/18 00:07:01;;;;;;;6.78;1.88;;;7.70;99.90;;;;;;5430869;26;20007;-68
2024/04/18 00:09:27;;;;;;;5.75;1.90;;;7.60;99.90;;;;;;5408607;26;20069;-70
2024/04/18 00:11:53;;;;;;;5.55;1.55;;;7.60;99.90;;;;;;5418602;26;20060;-69
2024/04/18 00:14:19;;;;;;;5.88;1.80;;;7.60;99.90;;;;;;5409460;26;20426;-69
2024/04/18 00:16:45;;;;;;;4.28;1.50;;;7.50;99.90;;;;;;5416671;26;19991;-70
2024/04/18 00:19:18;;;;;;;3.85;1.40;;;7.50;99.90;;;;;;5414312;26;20003;-69
2024/04/18 00:21:57;;;;;;;3.50;1.40;;;7.50;99.90;;;;;;5415899;26;20028;-69
2024/04/18 00:24:28;;;;;;;4.60;1.40;;;7.40;99.90;;;;;;5420645;26;20011;-71
2024/04/18 00:26:54;;;;;;;4.68;1.70;;;7.40;99.90;;;;;;5413431;26;20233;-69
2024/04/18 00:29:20;;;;;;;5.45;1.60;;;7.40;99.90;;;;;;5397532;26;20018;-70
2024/04/18 00:31:46;;;;;;;4.85;1.60;;;7.40;99.90;;;;;;5396505;26;20032;-70
2024/04/18 00:34:32;;;;;;;5.90;1.48;;;7.30;99.90;;;;;;5391606;26;20085;-70
2024/04/18 00:36:58;;;;;;;4.82;1.77;;;7.30;99.90;;;;;;5392682;26;20046;-70
2024/04/18 00:39:24;;;;;;;5.45;1.70;;;7.30;99.90;;;;;;5412463;26;19999;-69
2024/04/18 00:41:59;;;;;;;5.38;1.60;;;7.20;99.90;;;;;;5419690;26;20471;-69
2024/04/18 00:44:29;;;;;;;7.07;1.60;;;7.20;99.90;;;;;;5420676;26;20002;-70
2024/04/18 00:47:13;;;;;;;7.50;2.00;;;7.20;99.90;;;;;;5423362;26;20019;-68
2024/04/18 00:49:40;;;;;;;6.45;1.75;;;7.20;99.90;;;;;;5393534;26;20018;-72
2024/04/18 00:52:08;;;;;;;4.18;1.77;;;7.10;99.90;;;;;;5387289;26;20000;-69
2024/04/18 00:54:53;;;;;;;5.78;1.83;;;7.10;99.90;;;;;;5388431;26;20078;-68
2024/04/18 00:57:33;;;;;;;5.72;1.70;;;7.10;99.90;;;;;;5389739;26;20011;-71
2024/04/18 00:59:59;;;;;;;4.90;1.70;;;7.10;99.90;;;;;;5421682;26;20013;-69
2024/04/18 01:02:27;;;;;;;6.25;1.80;;;7.10;99.90;;;;;;5415940;26;20080;-70
2024/04/18 01:05:12;;;;;;;6.18;1.77;;;7.00;99.90;;;;;;5407817;26;20438;-69
2024/04/18 01:07:41;;;;;;;8.50;2.00;;;7.00;99.90;;;;;;5405737;26;20028;-69
2024/04/18 01:10:19;;;;;;;4.20;1.70;;;7.00;99.90;;;;;;5391729;26;20003;-69
2024/04/18 01:12:59;;;;;;;4.93;1.60;;;6.90;99.90;;;;;;5393002;26;19999;-69
2024/04/18 01:15:44;;;;;;;4.78;1.70;;;6.90;99.90;;;;;;5393636;26;20585;-70
2024/04/18 01:18:09;;;;;;;4.10;1.70;;;6.90;99.90;;;;;;5395040;26;19999;-69
2024/04/18 01:20:37;;;;;;;5.00;2.00;;;6.80;99.90;;;;;;5412075;26;20003;-68
2024/04/18 01:23:03;;;;;;;5.05;1.70;;;6.80;99.90;;;;;;5415134;26;20633;-68
2024/04/18 01:25:41;;;;;;;4.88;1.80;;;6.80;99.90;;;;;;5403538;26;19999;-69
2024/04/18 01:28:07;;;;;;;4.93;1.75;;;6.80;99.90;;;;;;5395573;26;20002;-69
2024/04/18 01:30:37;;;;;;;8.50;1.80;;;6.80;99.90;;;;;;5396385;26;19999;-69
2024/04/18 01:33:09;;;;;;;4.78;1.80;;;6.70;99.90;;;;;;5408309;26;20026;-69
2024/04/18 01:35:35;;;;;;;4.20;1.65;;;6.70;99.90;;;;;;5394935;26;19995;-71
2024/04/18 01:38:18;;;;;;;4.22;1.63;;;6.70;99.90;;;;;;5396507;26;20011;-70
2024/04/18 01:40:47;;;;;;;3.22;1.60;;;6.70;99.90;;;;;;5417766;26;20076;-69
2024/04/18 01:43:32;;;;;;;3.90;1.63;;;6.70;99.90;;;;;;5415683;26;20650;-69
2024/04/18 01:46:18;;;;;;;4.65;1.83;;;6.70;99.90;;;;;;5415464;26;20263;-68
2024/04/18 01:48:59;;;;;;;4.70;1.60;;;6.70;99.90;;;;;;5401742;26;20032;-69
2024/04/18 01:51:44;;;;;;;6.15;1.75;;;6.60;99.90;;;;;;5390834;26;20014;-69
2024/04/18 01:54:28;;;;;;;4.10;1.83;;;6.60;99.90;;;;;;5393449;26;20019;-70
2024/04/18 01:56:55;;;;;;;4.80;1.90;;;6.60;99.90;;;;;;5389639;26;20012;-70
2024/04/18 01:59:21;;;;;;;4.63;1.70;;;6.50;99.90;;;;;;5402536;26;20025;-68
2024/04/18 02:01:48;;;;;;;4.68;1.95;;;6.50;99.90;;;;;;5413537;26;20018;-69
2024/04/18 02:04:14;;;;;;;4.15;1.77;;;6.50;99.90;;;;;;5405653;26;20018;-68
2024/04/18 02:06:42;;;;;;;3.70;1.60;;;6.40;99.90;;;;;;5405055;26;20633;-69
2024/04/18 02:09:23;;;;;;;3.75;1.80;;;6.40;99.90;;;;;;5407788;26;20010;-70
2024/04/18 02:11:49;;;;;;;4.95;1.88;;;6.40;99.90;;;;;;5395534;26;20004;-69
2024/04/18 02:14:36;;;;;;;4.38;1.77;;;6.40;99.90;;;;;;5405383;26;20058;-69
2024/04/18 02:17:02;;;;;;;4.25;1.80;;;6.40;99.90;;;;;;5399169;26;20011;-72
2024/04/18 02:19:28;;;;;;;4.28;1.63;;;6.30;99.90;;;;;;5404961;26;20019;-68
2024/04/18 02:21:57;;;;;;;4.25;1.60;;;6.30;99.90;;;;;;5411684;26;20011;-69
2024/04/18 02:24:37;;;;;;;4.30;1.65;;;6.30;99.90;;;;;;5408541;26;20461;-69
2024/04/18 02:27:03;;;;;;;5.47;1.77;;;6.30;99.90;;;;;;5424718;26;20067;-70
2024/04/18 02:29:29;;;;;;;5.63;1.70;;;6.30;99.90;;;;;;5411305;26;20039;-70
2024/04/18 02:31:58;;;;;;;5.22;1.73;;;6.20;99.90;;;;;;5398251;26;20466;-70
2024/04/18 02:34:30;;;;;;;3.20;1.40;;;6.20;99.90;;;;;;5400603;26;20000;-70
2024/04/18 02:36:56;;;;;;;3.67;1.65;;;6.20;99.90;;;;;;5395025;26;20004;-71
2024/04/18 02:39:22;;;;;;;6.72;1.70;;;6.20;99.90;;;;;;5408303;26;20032;-69
2024/04/18 02:41:48;;;;;;;3.30;1.58;;;6.20;99.90;;;;;;5415105;26;19999;-70
2024/04/18 02:44:47;;;;;;;3.92;1.50;;;6.20;99.90;;;;;;5416380;26;20658;-68
2024/04/18 02:47:13;;;;;;;4.10;1.70;;;6.20;99.90;;;;;;5412959;26;20011;-68
2024/04/18 02:49:58;;;;;;;5.13;1.60;;;6.20;99.90;;;;;;5409938;26;20104;-69
2024/04/18 02:52:24;;;;;;;5.80;1.80;;;6.20;99.90;;;;;;5410569;26;20479;-71
2024/04/18 02:54:50;;;;;;;3.83;1.73;;;6.20;99.90;;;;;;5415535;26;20418;-69
2024/04/18 02:57:16;;;;;;;5.55;2.00;;;6.20;99.90;;;;;;5420854;26;20004;-69
2024/04/18 02:59:42;;;;;;;5.45;2.53;;;6.20;99.90;;;;;;5406995;26;20653;-70
2024/04/18 03:02:20;;;;;;;8.52;2.58;;;6.20;99.90;;;;;;5409421;26;20040;-69
2024/04/18 03:04:46;;;;;;;8.80;3.80;;;6.10;99.90;;;;;;5421692;26;20478;-70
2024/04/18 03:07:12;;;;;;;10.07;4.10;;;6.10;99.90;;;;;;5407824;26;20011;-68
2024/04/18 03:09:46;;;;;;;6.53;3.20;;;6.10;99.90;;;;;;5395920;26;20015;-70
2024/04/18 03:12:25;;;;;;;7.13;3.58;;;6.10;99.90;;;;;;5402451;26;20110;-69
2024/04/18 03:15:09;;;;;;;7.85;3.13;;;6.10;99.90;;;;;;5389416;26;20035;-69
2024/04/18 03:17:40;;;;;;;6.22;2.97;;;6.00;99.90;;;;;;5391009;26;19997;-70
2024/04/18 03:20:26;;;;;;;6.47;2.90;;;6.10;99.90;;;;;;5423695;26;20641;-69
2024/04/18 03:23:08;;;;;;;6.15;2.40;;;6.00;99.90;;;;;;5385262;26;20004;-70
2024/04/18 03:25:54;;;;;;;6.57;2.70;;;6.00;99.90;;;;;;5386516;26;20015;-70
2024/04/18 03:28:20;;;;;;;6.20;2.47;;;6.00;99.90;;;;;;5401497;26;20685;-69
2024/04/18 03:30:46;;;;;;;4.35;2.30;;;6.00;99.90;;;;;;5413815;26;20013;-69
2024/04/18 03:33:12;;;;;;;3.65;2.10;;;6.00;99.90;;;;;;5412999;26;20452;-68
2024/04/18 03:35:39;;;;;;;4.40;2.28;;;6.00;99.90;;;;;;5422882;26;20007;-71
2024/04/18 03:38:14;;;;;;;5.18;2.15;;;6.00;99.90;;;;;;5415262;26;21165;-69
2024/04/18 03:40:40;;;;;;;5.38;2.20;;;6.00;99.90;;;;;;5408938;26;20007;-68
2024/04/18 03:43:06;;;;;;;6.75;2.00;;;5.90;99.90;;;;;;5401846;26;20015;-70
2024/04/18 03:45:32;;;;;;;4.68;2.00;;;5.90;99.90;;;;;;5396939;26;20012;-70
2024/04/18 03:48:24;;;;;;;3.22;1.73;;;5.90;99.90;;;;;;5399947;26;20003;-70
2024/04/18 03:50:50;;;;;;;5.88;1.98;;;5.90;99.90;;;;;;5400322;26;20015;-70
2024/04/18 03:53:22;;;;;;;6.28;1.83;;;5.80;99.90;;;;;;5402965;26;20007;-68
2024/04/18 03:56:07;;;;;;;4.00;1.70;;;5.80;99.90;;;;;;5385182;26;20080;-72
2024/04/18 03:58:33;;;;;;;2.72;1.40;;;5.80;99.90;;;;;;5406370;26;19995;-70
2024/04/18 04:00:59;;;;;;;4.65;1.73;;;5.80;99.90;;;;;;5409570;26;19998;-69
2024/04/18 04:03:25;;;;;;;6.43;1.70;;;5.70;99.90;;;;;;5416635;26;20056;-69
2024/04/18 04:05:50;;;;;;;4.25;1.88;;;5.70;99.90;;;;;;5393018;26;19996;-68
2024/04/18 04:08:16;;;;;;;4.68;1.52;;;5.70;99.90;;;;;;5390808;26;20011;-69
2024/04/18 04:10:42;;;;;;;4.95;1.73;;;5.70;99.90;;;;;;5393829;26;20156;-68
2024/04/18 04:13:09;;;;;;;3.80;1.80;;;5.60;99.90;;;;;;5395671;26;20000;-70
2024/04/18 04:15:51;;;;;;;5.07;1.70;;;5.60;99.90;;;;;;5397299;26;20014;-71
2024/04/18 04:18:35;;;;;;;4.82;1.77;;;5.60;99.90;;;;;;5399628;26;20018;-71
2024/04/18 04:21:36;;;;;;;5.65;1.80;;;5.60;99.90;;;;;;5411798;26;20463;-72
2024/04/18 04:24:02;;;;;;;4.97;1.52;;;5.60;99.90;;;;;;5413819;26;19999;-69
2024/04/18 04:26:47;;;;;;;4.00;1.70;;;5.50;99.90;;;;;;5415929;26;20660;-70
2024/04/18 04:29:13;;;;;;;6.00;1.70;;;5.50;99.90;;;;;;5415009;26;20010;-67
2024/04/18 04:31:39;;;;;;;6.28;1.90;;;5.50;99.90;;;;;;5415301;26;20000;-70
2024/04/18 04:34:07;;;;;;;3.30;1.60;;;5.50;99.90;;;;;;5415781;26;20068;-68
2024/04/18 04:36:34;;;;;;;5.53;1.60;;;5.50;99.90;;;;;;5415175;26;20479;-69
2024/04/18 04:39:00;;;;;;;6.80;2.35;;;5.50;99.90;;;;;;5411175;26;20011;-68
2024/04/18 04:41:33;;;;;;;5.18;1.83;;;5.40;99.90;;;;;;5408285;26;20030;-70
2024/04/18 04:43:59;;;;;;;4.90;1.90;;;5.40;99.90;;;;;;5413524;26;20135;-70
2024/04/18 04:46:45;;;;;;;5.88;1.70;;;5.40;99.90;;;;;;5412424;26;20003;-68
2024/04/18 04:49:18;;;;;;;5.60;1.70;;;5.40;99.90;;;;;;5396415;26;20404;-68
2024/04/18 04:52:03;;;;;;;4.95;2.00;;;5.40;99.90;;;;;;5396354;26;20341;-70
2024/04/18 04:54:42;;;;;;;4.63;1.90;;;5.40;99.90;;;;;;5396181;26;20478;-68
2024/04/18 04:57:08;;;;;;;4.47;1.92;;;5.30;99.90;;;;;;5397227;26;20502;-70
2024/04/18 04:59:35;;;;;;;4.90;1.80;;;5.30;99.90;;;;;;5400806;26;20014;-70
2024/04/18 05:02:01;;;;;;;4.32;1.83;;;5.30;99.90;;;;;;5408981;26;20527;-69
2024/04/18 05:04:45;;;;;;;4.72;1.80;;;5.30;99.90;;;;;;5410946;26;20474;-68
2024/04/18 05:07:31;;;;;;;4.47;1.90;;;5.30;99.90;;;;;;5402970;26;20017;-70
2024/04/18 05:10:17;;;;;;;5.35;1.80;;;5.30;99.90;;;;;;5411573;26;20433;-69
2024/04/18 05:12:43;;;;;;;4.45;2.10;;;5.30;99.90;;;;;;5405781;26;20022;-68
2024/04/18 05:15:29;;;;;;;5.90;2.38;;;5.30;99.90;;;;;;5412740;26;20467;-68
2024/04/18 05:17:58;;;;;;;4.57;2.08;;;5.30;99.90;;;;;;5409044;26;20015;-73
2024/04/18 05:20:23;;;;;;;5.97;2.33;;;5.30;99.90;;;;;;5407891;26;20007;-70
2024/04/18 05:22:49;;;;;;;3.58;2.00;;;5.30;99.90;;;;;;5410419;26;20014;-68
2024/04/18 05:25:15;;;;;;;6.95;2.25;;;5.30;99.90;;;;;;5402297;26;20007;-70
2024/04/18 05:27:53;;;;;;;6.07;2.67;;;5.30;99.90;;;;;;5403317;26;20008;-72
2024/04/18 05:33:18;;;;;;;5.50;2.88;;;5.30;99.90;;;;;;5397896;26;20018;-70
2024/04/18 05:35:44;;;;;;;6.38;3.10;;;5.40;99.90;;;;;;5396347;26;20004;-68
2024/04/18 05:38:10;;;;;;;8.25;3.30;;;5.40;99.90;;;;;;5399169;26;19995;-69
2024/04/18 05:40:36;;;;;;;7.07;3.30;;;5.50;99.90;;;;;;5410919;26;19997;-70
2024/04/18 05:43:02;;;;;;;7.07;3.17;;;5.50;99.90;;;;;;5413390;26;20001;-69
2024/04/18 05:45:47;;;;;;;7.38;2.85;;;5.50;99.90;;;;;;5409186;26;20006;-68
2024/04/18 05:48:13;;;;;;;7.37;3.00;;;5.60;99.90;;;;;;5402791;26;20007;-71
2024/04/18 05:50:40;;;;;;;5.97;3.20;;;5.60;99.90;;;;;;5399492;26;20611;-71
2024/04/18 05:53:19;;;;;;;6.32;2.88;;;5.70;99.90;;;;;;5410460;26;19996;-70
2024/04/18 05:55:54;;;;;;;4.85;2.58;;;5.80;99.90;;;;;;5410293;26;20029;-70
2024/04/18 05:58:20;;;;;;;6.68;3.05;;;5.80;99.90;;;;;;5409254;26;20003;-74
2024/04/18 06:00:52;;;;;;;6.53;3.03;;;5.90;99.90;;;;;;5414061;26;20086;-71
2024/04/18 06:03:19;;;;;;;4.60;2.67;;;6.00;99.90;;;;;;5411496;26;20508;-64
2024/04/18 06:05:45;;;;;;;4.93;2.75;;;6.00;99.90;;;;;;5413483;26;20011;-66
2024/04/18 06:08:14;;;;;;;7.05;2.70;;;6.10;99.90;;;;;;5406296;26;20015;-66
2024/04/18 06:10:44;;;;;;;6.20;2.60;;;6.20;99.90;;;;;;5394299;26;20474;-66
2024/04/18 06:13:19;;;;;;;5.93;2.60;;;6.20;99.90;;;;;;5388842;26;20336;-66
2024/04/18 06:15:46;;;;;;;6.30;3.10;;;6.20;99.90;;;;;;5390009;26;20000;-66
2024/04/18 06:18:13;;;;;;;5.28;2.72;;;6.30;99.90;;;;;;5393038;26;20003;-65
2024/04/18 06:20:43;;;;;;;6.60;3.03;;;6.30;99.90;;;;;;5407469;26;20081;-65
2024/04/18 06:23:10;;;;;;;6.47;2.90;;;6.40;99.90;;;;;;5410844;26;20783;-66
2024/04/18 06:25:36;;;;;;;8.05;2.83;;;6.50;99.90;;;;;;5408812;26;20003;-66
2024/04/18 06:28:10;;;;;;;4.68;2.72;;;6.50;99.90;;;;;;5407208;26;20015;-68
2024/04/18 06:30:37;;;;;;;7.50;2.83;;;6.60;99.90;;;;;;5416731;26;20010;-69
2024/04/18 06:33:10;;;;;;;4.72;2.60;;;6.60;99.90;;;;;;5375795;26;20081;-68
2024/04/18 06:35:36;;;;;;;7.13;2.58;;;6.60;99.90;;;;;;5390608;26;19991;-69
2024/04/18 06:38:02;;;;;;;5.78;2.55;;;6.60;99.90;;;;;;5389828;26;20007;-68
2024/04/18 06:40:28;;;;;;;6.65;2.30;;;6.60;99.90;;;;;;5411187;26;20430;-68
2024/04/18 06:42:55;;;;;;;5.18;2.25;;;6.70;99.90;;;;;;5412332;26;20000;-68
2024/04/18 06:45:21;;;;;;;6.07;2.40;;;6.70;99.90;;;;;;5409110;26;20010;-67
2024/04/18 06:47:48;;;;;;;5.32;2.30;;;6.70;99.90;;;;;;5409933;26;20019;-69
2024/04/18 06:50:17;;;;;;;8.07;2.80;;;6.70;99.90;;;;;;5398978;26;20000;-70
2024/04/18 06:52:43;;;;;;;7.10;2.90;;;6.80;99.90;;;;;;5394050;26;20023;-68
2024/04/18 06:55:09;;;;;;;6.13;2.70;;;6.80;99.90;;;;;;5394440;26;20002;-69
2024/04/18 06:57:44;;;;;;;8.63;3.20;;;6.90;99.90;;;;;;5390203;26;20004;-68
2024/04/18 07:00:11;;;;;;;7.60;2.80;;;7.00;99.90;;;;;;5407426;26;20004;-69
2024/04/18 07:02:37;;;;;;;4.93;2.55;;;7.00;99.90;;;;;;5411692;26;20402;-68
2024/04/18 07:05:22;;;;;;;7.10;2.78;;;7.10;99.90;;;;;;5420315;26;20077;-71
2024/04/18 07:07:51;;;;;;;6.90;3.10;;;7.20;99.90;;;;;;5408160;26;20000;-68
2024/04/18 07:10:31;;;;;;;6.22;2.70;;;7.30;99.90;;;;;;5397067;26;19998;-69
2024/04/18 07:12:57;;;;;;;7.82;3.58;;;7.40;99.90;;;;;;5388916;26;20452;-68
2024/04/18 07:15:23;;;;;;;7.72;3.45;;;7.40;99.90;;;;;;5393782;26;20382;-68
2024/04/18 07:18:09;;;;;;;8.23;2.90;;;7.50;99.90;;;;;;5395291;26;20018;-68
2024/04/18 07:20:35;;;;;;;6.65;2.53;;;7.60;99.90;;;;;;5414300;26;20007;-69
2024/04/18 07:23:04;;;;;;;6.43;2.15;;;7.60;99.90;;;;;;5413517;26;20008;-69
2024/04/18 07:25:31;;;;;;;5.55;2.30;;;7.60;99.90;;;;;;5412094;26;19996;-68
2024/04/18 07:27:57;;;;;;;5.80;2.33;;;7.60;99.90;;;;;;5417726;26;20015;-71
2024/04/18 07:30:23;;;;;;;4.57;2.25;;;7.70;99.90;;;;;;5392422;26;20439;-68
2024/04/18 07:32:51;;;;;;;5.43;2.10;;;7.70;99.90;;;;;;5400369;26;20008;-68
2024/04/18 07:35:37;;;;;;;5.93;2.10;;;7.70;99.90;;;;;;5400218;26;19999;-69
2024/04/18 07:38:03;;;;;;;5.05;1.90;;;7.80;99.90;;;;;;5393831;26;20014;-69
2024/04/18 07:40:29;;;;;;;4.43;1.63;;;7.90;99.90;;;;;;5411976;26;20018;-68
2024/04/18 07:42:55;;;;;;;2.90;1.30;;;8.00;99.90;;;;;;5409926;26;20004;-67
2024/04/18 07:45:21;;;;;;;4.65;1.40;;;8.00;99.90;;;;;;5414614;26;20003;-69
2024/04/18 07:47:47;;;;;;;5.03;1.45;;;8.10;99.90;;;;;;5402664;26;20023;-68
2024/04/18 07:50:13;;;;;;;4.97;1.60;;;8.10;99.90;;;;;;5392792;26;20027;-69
2024/04/18 07:52:39;;;;;;;3.95;1.55;;;8.10;99.90;;;;;;5391389;26;20039;-67
2024/04/18 07:55:06;;;;;;;7.25;1.80;;;8.20;99.90;;;;;;5395082;26;20451;-68
2024/04/18 07:57:32;;;;;;;4.90;1.80;;;8.20;99.90;;;;;;5391988;26;20015;-66
2024/04/18 07:59:58;;;;;;;5.90;2.05;;;8.20;99.90;;;;;;5414685;26;19999;-68
2024/04/18 08:02:24;;;;;;;4.07;1.60;;;8.30;99.90;;;;;;5404721;26;20471;-69
2024/04/18 08:04:50;;;;;;;4.55;1.23;;;8.20;99.90;;;;;;5415170;26;20315;-68
2024/04/18 08:07:15;;;;;;;5.80;1.50;;;8.20;99.90;;;;;;5416247;26;20405;-70
2024/04/18 08:09:41;;;;;;;5.03;1.40;;;8.20;99.90;;;;;;5416707;26;20019;-68
2024/04/18 08:12:07;;;;;;;6.65;1.95;;;8.20;99.90;;;;;;5412289;26;19996;-70
2024/04/18 08:14:33;;;;;;;5.20;1.60;;;8.20;99.90;;;;;;5414827;26;20015;-66
2024/04/18 08:16:59;;;;;;;9.02;1.98;;;8.20;99.90;;;;;;5410610;26;20023;-68
2024/04/18 08:19:25;;;;;;;7.50;2.00;;;8.20;99.90;;;;;;5413488;26;20009;-69
2024/04/18 08:21:51;;;;;;;7.53;1.75;;;8.20;99.90;;;;;;5417633;26;20126;-70
2024/04/18 08:24:27;;;;;;;6.93;1.60;;;8.20;99.90;;;;;;5411910;26;20000;-70
2024/04/18 08:27:05;;;;;;;4.90;1.23;;;8.20;99.90;;;;;;5410282;26;20019;-68
2024/04/18 08:29:31;;;;;;;4.82;1.35;;;8.30;99.90;;;;;;5391016;26;20000;-68
2024/04/18 08:31:57;;;;;;;6.43;1.60;;;8.30;99.90;;;;;;5394617;26;20011;-68
2024/04/18 08:34:23;;;;;;;4.00;1.30;;;8.20;99.90;;;;;;5403373;26;20391;-69
2024/04/18 08:36:49;;;;;;;5.90;1.42;;;8.30;99.90;;;;;;5396798;26;20026;-69
2024/04/18 08:39:15;;;;;;;5.43;1.55;;;8.30;99.90;;;;;;5407804;26;20012;-68
2024/04/18 08:41:43;;;;;;;5.53;1.67;;;8.30;99.90;;;;;;5416194;26;20816;-68
2024/04/18 08:44:10;;;;;;;4.35;1.48;;;8.40;99.90;;;;;;5418845;26;20389;-68
2024/04/18 08:46:37;;;;;;;5.68;1.42;;;8.40;99.90;;;;;;5420411;26;20410;-69
2024/04/18 08:49:06;;;;;;;6.82;1.83;;;8.40;99.90;;;;;;5402135;26;20000;-65
2024/04/18 08:51:37;;;;;;;6.72;1.85;;;8.40;99.90;;;;;;5392790;26;20070;-69
2024/04/18 08:54:04;;;;;;;8.05;1.80;;;8.50;99.90;;;;;;5388473;26;20000;-69
2024/04/18 08:56:33;;;;;;;5.38;1.90;;;8.50;99.90;;;;;;5388725;26;20472;-69
2024/04/18 08:58:59;;;;;;;6.80;2.00;;;8.50;99.90;;;;;;5396342;26;20057;-70
2024/04/18 09:01:26;;;;;;;5.20;1.90;;;8.50;99.90;;;;;;5414266;26;19999;-67
2024/04/18 09:03:57;;;;;;;4.97;1.65;;;8.60;99.90;;;;;;5425453;26;20003;-68
2024/04/18 09:06:23;;;;;;;;;;;8.60;99.90;;;;;;5415423;26;20004;-68
2024/04/18 09:08:50;;;;;;;5.85;1.70;;;8.60;99.90;;;;;;5414832;26;19925;-69
2024/04/18 09:11:16;;;;;;;7.03;1.77;;;8.60;99.90;;;;;;5416776;26;20003;-68
2024/04/18 09:13:43;;;;;;;7.03;2.00;;;8.70;99.90;;;;;;5414655;26;20080;-68
2024/04/18 09:16:09;;;;;;;6.68;1.45;;;8.70;99.90;;;;;;5410638;26;19996;-68
2024/04/18 09:18:35;;;;;;;6.93;1.50;;;8.80;99.90;;;;;;5420555;26;20496;-69
2024/04/18 09:21:02;;;;;;;7.18;1.77;;;8.90;99.90;;;;;;5419671;26;19999;-67
2024/04/18 09:23:32;;;;;;;5.75;1.38;;;9.00;99.90;;;;;;5424070;26;20010;-68
2024/04/18 09:25:58;;;;;;;8.13;1.60;;;9.00;99.90;;;;;;5421726;26;20003;-68
2024/04/18 09:28:23;;;;;;;7.45;1.40;;;9.00;99.90;;;;;;5404182;26;20055;-68
2024/04/18 09:30:53;;;;;;;9.60;1.65;;;9.10;99.90;;;;;;5393884;26;20019;-68
2024/04/18 09:33:20;;;;;;;6.80;1.48;;;9.20;99.90;;;;;;5392420;26;19999;-66
2024/04/18 09:35:49;;;;;;;6.05;1.73;;;9.20;99.90;;;;;;5392762;26;20003;-68
2024/04/18 09:38:17;;;;;;;8.18;1.67;;;9.30;99.90;;;;;;5400796;26;20015;-68
2024/04/18 09:41:10;;;;;;;9.13;1.75;;;9.30;99.90;;;;;;5411235;26;20390;-67
2024/04/18 09:43:52;;;;;;;6.93;1.70;;;9.30;99.90;;;;;;5416190;26;20047;-68
2024/04/18 09:46:19;;;;;;;6.80;1.30;;;9.40;99.90;;;;;;5421501;26;20011;-69
2024/04/18 09:48:46;;;;;;;6.10;1.33;;;9.30;99.90;;;;;;5398838;26;20015;-69
2024/04/18 09:51:14;;;;;;;4.97;1.23;;;9.40;99.90;;;;;;5387966;26;20008;-69
2024/04/18 09:53:43;;;;;;;4.05;1.48;;;9.40;99.90;;;;;;5389508;26;20004;-68
2024/04/18 09:56:09;;;;;;;4.50;1.27;;;9.50;99.90;;;;;;5392245;26;20014;-68
2024/04/18 09:58:36;;;;;;;6.65;1.70;;;9.60;99.90;;;;;;5396857;26;20072;-68
2024/04/18 10:01:02;;;;;;;5.82;1.23;;;9.60;99.90;;;;;;5411893;26;19998;-69
2024/04/18 10:03:28;;;;;;;4.82;1.30;;;9.80;99.90;;;;;;5406706;26;20073;-69
2024/04/18 10:05:58;;;;;;;4.00;1.40;;;9.80;99.90;;;;;;5421862;26;20459;-69
2024/04/18 10:08:34;;;;;;;4.53;1.10;;;9.90;99.90;;;;;;5394938;26;20004;-69
2024/04/18 10:11:00;;;;;;;4.70;0.90;;;9.90;99.90;;;;;;5403146;26;20065;-69
2024/04/18 10:13:27;;;;;;;4.05;0.95;;;9.90;99.90;;;;;;5394077;26;20006;-68
2024/04/18 10:16:08;;;;;;;3.53;1.13;;;10.00;99.90;;;;;;5395321;26;20642;-70
2024/04/18 10:18:35;;;;;;;6.55;1.23;;;10.00;99.90;;;;;;5397827;26;20014;-68
2024/04/18 10:21:13;;;;;;;7.35;1.08;;;10.00;99.90;;;;;;5409906;26;20014;-69
2024/04/18 10:24:05;;;;;;;4.30;1.10;;;10.00;99.90;;;;;;5412534;26;20312;-70
2024/04/18 10:26:32;;;;;;;4.32;1.00;;;10.10;99.90;;;;;;5416040;26;20011;-70
2024/04/18 10:28:58;;;;;;;3.63;0.80;;;10.10;99.90;;;;;;5401950;26;20053;-70
2024/04/18 10:31:28;;;;;;;5.68;1.10;;;10.10;99.90;;;;;;5396913;26;20003;-69
2024/04/18 10:33:55;;;;;;;6.68;1.20;;;10.10;99.90;;;;;;5395977;26;20042;-69
2024/04/18 10:36:23;;;;;;;3.03;0.90;;;10.10;99.90;;;;;;5394739;26;20334;-69
2024/04/18 10:38:49;;;;;;;5.00;1.10;;;10.10;99.90;;;;;;5397139;26;20026;-69
2024/04/18 10:41:17;;;;;;;4.90;1.30;;;10.10;99.90;;;;;;5407632;26;20007;-71
2024/04/18 10:43:44;;;;;;;4.97;1.40;;;10.10;99.90;;;;;;5420875;26;20007;-71
2024/04/18 10:46:12;;;;;;;6.13;1.10;;;10.10;99.90;;;;;;5415060;26;20047;-71
2024/04/18 10:48:38;;;;;;;4.05;1.00;;;10.10;99.90;;;;;;5389232;26;19996;-71
2024/04/18 10:51:05;;;;;;;3.60;1.00;;;10.10;99.90;;;;;;5398786;26;20004;-71
2024/04/18 10:53:37;;;;;;;4.38;1.00;;;10.10;99.90;;;;;;5393521;26;20387;-71
2024/04/18 10:56:03;;;;;;;4.10;1.27;;;10.10;99.90;;;;;;5391587;26;20015;-71
2024/04/18 10:58:29;;;;;;;5.88;0.90;;;10.20;99.90;;;;;;5408512;26;20011;-71
2024/04/18 11:01:00;;;;;;;2.85;0.88;;;10.20;99.90;;;;;;5420360;26;20018;-71
2024/04/18 11:03:29;;;;;;;;;;;10.30;99.90;;;;;;5402240;26;20430;-71
2024/04/18 11:05:55;;;;;;;4.10;1.02;;;10.20;99.90;;;;;;5419743;26;19936;-71
2024/04/18 11:08:21;;;;;;;3.80;1.02;;;10.30;99.90;;;;;;5395356;26;19996;-71
2024/04/18 11:10:47;;;;;;;4.05;1.20;;;10.30;99.90;;;;;;5394555;26;20014;-70
2024/04/18 11:13:15;;;;;;;4.93;1.10;;;10.20;99.90;;;;;;5392624;26;20080;-69
2024/04/18 11:15:41;;;;;;;5.50;0.93;;;10.30;99.90;;;;;;5389869;26;20014;-70
2024/04/18 11:18:07;;;;;;;3.95;1.10;;;10.30;99.90;;;;;;5394082;26;20033;-70
2024/04/18 11:20:36;;;;;;;5.82;1.35;;;10.30;99.90;;;;;;5415077;26;20003;-70
2024/04/18 11:23:06;;;;;;;4.65;1.20;;;10.30;99.90;;;;;;5430730;26;20007;-70
2024/04/18 11:25:32;;;;;;;6.97;1.30;;;10.30;99.90;;;;;;5425674;26;20008;-70
2024/04/18 11:28:05;;;;;;;5.55;1.10;;;10.30;99.90;;;;;;5417574;26;19995;-70
2024/04/18 11:30:31;;;;;;;3.53;1.00;;;10.30;99.90;;;;;;5387314;26;20825;-70
2024/04/18 11:32:58;;;;;;;4.45;1.00;;;10.30;99.90;;;;;;5391847;26;20053;-70
2024/04/18 11:35:25;;;;;;;4.22;1.20;;;10.40;99.90;;;;;;5389166;26;20449;-68
2024/04/18 11:37:51;;;;;;;5.47;1.00;;;10.40;99.90;;;;;;5393796;26;20011;-67
2024/04/18 11:40:18;;;;;;;4.30;1.05;;;10.40;99.90;;;;;;5410561;26;20003;-68
2024/04/18 11:42:44;;;;;;;5.68;1.02;;;10.50;99.90;;;;;;5417368;26;20004;-68
2024/04/18 11:45:11;;;;;;;4.13;1.20;;;10.50;99.90;;;;;;5408368;26;20002;-67
2024/04/18 11:47:37;;;;;;;3.55;1.13;;;10.60;99.90;;;;;;5413740;26;19995;-67
2024/04/18 11:50:04;;;;;;;5.15;0.93;;;10.60;99.90;;;;;;5414496;26;20463;-67
2024/04/18 11:52:30;;;;;;;4.35;0.90;;;10.70;99.90;;;;;;5419141;26;20038;-68
2024/04/18 11:54:56;;;;;;;2.38;1.02;;;10.70;99.90;;;;;;5413995;26;19996;-70
2024/04/18 11:57:35;;;;;;;5.85;1.00;;;10.60;99.90;;;;;;5412246;26;20010;-70
2024/04/18 12:00:01;;;;;;;3.78;1.02;;;10.60;99.90;;;;;;5411375;26;19995;-70
2024/04/18 12:02:31;;;;;;;4.63;1.00;;;10.50;99.90;;;;;;5421892;26;20003;-70
2024/04/18 12:04:57;;;;;;;7.35;1.23;;;10.50;99.90;;;;;;5417531;26;20069;-70
2024/04/18 12:07:23;;;;;;;4.07;1.20;;;10.50;99.90;;;;;;5428317;26;20393;-70
2024/04/18 12:09:51;;;;;;;2.90;1.20;;;10.50;99.90;;;;;;5397235;26;19997;-70
2024/04/18 12:12:17;;;;;;;4.82;1.27;;;10.50;99.90;;;;;;5395096;26;20057;-70
2024/04/18 12:14:46;;;;;;;4.50;1.20;;;10.40;99.90;;;;;;5392363;26;20089;-70
2024/04/18 12:17:24;;;;;;;5.32;1.30;;;10.40;99.90;;;;;;5393981;26;20469;-70
2024/04/18 12:20:10;;;;;;;2.80;1.00;;;10.50;99.90;;;;;;5416397;26;20050;-70
2024/04/18 12:22:36;;;;;;;4.30;1.02;;;10.50;99.90;;;;;;5408466;26;20011;-70
2024/04/18 12:25:11;;;;;;;4.05;1.00;;;10.70;99.90;;;;;;5416292;26;20013;-70
2024/04/18 12:27:37;;;;;;;4.05;1.10;;;10.70;99.90;;;;;;5406357;26;20075;-70
2024/04/18 12:30:03;;;;;;;5.93;1.10;;;10.70;99.90;;;;;;5385430;26;20008;-70
2024/04/18 12:32:29;;;;;;;5.03;1.10;;;10.80;99.90;;;;;;5417422;26;20007;-70
2024/04/18 12:34:55;;;;;;;3.08;0.90;;;10.80;99.90;;;;;;5383740;26;20030;-70
2024/04/18 12:37:20;;;;;;;3.53;1.00;;;10.80;99.90;;;;;;5393588;26;20003;-70
2024/04/18 12:39:48;;;;;;;3.38;0.80;;;10.80;99.90;;;;;;5406146;26;20011;-70
2024/04/18 12:42:25;;;;;;;2.58;1.00;;;10.80;99.90;;;;;;5418617;26;20011;-70
2024/04/18 12:44:51;;;;;;;5.00;1.00;;;10.80;99.90;;;;;;5411155;26;20447;-70
2024/04/18 12:47:19;;;;;;;5.93;1.10;;;10.90;99.90;;;;;;5418716;26;20455;-70
2024/04/18 12:49:46;;;;;;;4.25;1.00;;;11.00;99.90;;;;;;5423493;26;20002;-70
2024/04/18 12:52:13;;;;;;;3.88;0.77;;;10.90;99.90;;;;;;5417856;26;20075;-70
2024/04/18 12:54:38;;;;;;;2.15;0.70;;;11.00;99.90;;;;;;5419595;26;20487;-69
2024/04/18 12:57:04;;;;;;;4.40;0.80;;;11.10;99.90;;;;;;5417340;26;20008;-67
2024/04/18 12:59:50;;;;;;;2.65;0.80;;;11.20;99.90;;;;;;5416107;26;20448;-68
2024/04/18 13:02:24;;;;;;;3.58;0.65;;;11.30;99.90;;;;;;5411972;26;20031;-67
2024/04/18 13:04:53;;;;;;;2.95;0.80;;;11.40;99.90;;;;;;5414852;26;20348;-67
2024/04/18 13:07:22;;;;;;;4.07;0.75;;;11.50;99.90;;;;;;5414113;26;20056;-67
2024/04/18 13:10:08;;;;;;;3.65;0.70;;;11.70;99.90;;;;;;5392229;26;20014;-67
2024/04/18 13:12:41;;;;;;;3.58;0.63;;;11.70;99.90;;;;;;5387561;26;20072;-68
2024/04/18 13:15:26;;;;;;;3.22;0.70;;;11.80;99.90;;;;;;5387629;26;20083;-70